• Join FlightAware (Why Join?)
  • Login
  • US Flag 
11:22PM EDT


 

Airport Tracker/Info


-or-


 

Live Flight TrackerFlight Track Log ✈ EJA922 ✈ 07-Aug-2013 ✈ KBTR - KHOU

Flight Track Log - Related Links

Times and Time Zones

All times are in EDT time to prevent confusion due to time zone crossing. See the EJA922 flight status page for this flight to view local times or setup timezone preferences in your user account.

Time Position Orientation Groundspeed Altitude Reporting Facility
EDT Latitude Longitude Course Direction KTS MPH feet Rate Location/Type
09:50AM 30.4889 -91.1931 226° Southwest 232 267 3,500  Level Houston Center
09:51AM 30.4347 -91.2469 221° Southwest 250 288 7,900 3,420 Climbing Houston Center
09:52AM 30.3717 -91.3122 222° Southwest 304 350 10,600 2,880 Climbing Houston Center
09:53AM 30.2969 -91.3919 223° Southwest 357 411 13,900 2,880 Climbing Houston Center
09:54AM 30.2158 -91.4764 222° Southwest 386 444 16,700 2,460 Climbing Houston Center
09:55AM 30.3607 -91.7737 226° Southwest  Level FlightAware Approximate
09:55AM 30.1447 -91.5708 229° Southwest 396 456 19,000  Level Houston Center
09:56AM 30.0894 -91.7067 245° Southwest 392 451 21,200 1,680 Climbing Houston Center
09:57AM 30.0394 -91.8311 245° Southwest 402 463 22,500 1,080 Climbing Houston Center
09:58AM 29.9897 -91.9547 245° Southwest 422 486 23,500 960 Climbing Houston Center
09:59AM 29.9375 -92.0822 245° Southwest 436 502 24,600 960 Climbing Houston Center
10:00AM 29.8828 -92.2133 244° Southwest 450 518 25,600 660 Climbing Houston Center
10:01AM 29.8264 -92.3467 244° Southwest 461 531 26,000 180 Climbing Houston Center
10:02AM 29.7672 -92.4872 244° Southwest 482 555 26,000  Level Houston Center
10:03AM 29.6950 -92.6603 244° Southwest 497 572 26,000  Level Houston Center
10:04AM 29.6333 -92.8058 244° Southwest 503 579 26,000  Level Houston Center
10:05AM 29.5725 -92.9486 244° Southwest 498 573 26,000  Level Houston Center
10:06AM 29.5128 -93.0894 244° Southwest 492 566 26,000  Level Houston Center
10:07AM 29.4528 -93.2306 244° Southwest 491 565 26,000  Level Houston Center
10:08AM 29.3950 -93.3664 244° Southwest 478 550 26,000  Level Houston Center
10:09AM 29.3361 -93.5019 244° Southwest 475 547 26,000 -300 Level Houston Center
10:10AM 29.2681 -93.6661 245° Southwest 475 547 25,400 -1,560 Descending Houston Center
10:11AM 29.2619 -93.8222 267° West 495 570 22,800 -2,460 Descending Houston Center
10:12AM 29.2633 -93.9669 271° West 485 558 20,400 -2,760 Descending Houston Center
10:13AM 29.2656 -94.1106 271° West 460 529 17,200 -3,480 Descending Houston Center
10:14AM 29.2661 -94.2289 270° West 433 498 14,500 -3,060 Descending Houston Center
10:15AM 29.2664 -94.3558 270° West 437 503 12,400 -1,320 Descending Houston Center
10:16AM 29.2697 -94.4753 272° West 347 399 12,000 -240 Descending Houston Center
10:17AM 29.3083 -94.5686 295° West 311 358 12,000  Level Houston Center
10:18AM 29.3261 -94.6047 299° West 320 368 12,000 -600 Level Houston Center
10:18AM 29.3531 -94.6614 299° West 317 365 11,400 -1,080 Descending Houston Center
10:19AM 29.3692 -94.6906 302° West 313 360 10,900 -1,140 Descending Houston Center
10:20AM 29.4089 -94.7731 299° West 298 343 9,700 -1,260 Descending Houston Center
10:21AM 29.4575 -94.8717 300° West 296 341 8,300 -1,440 Descending Houston Center
10:21AM 29.4811 -94.9211 299° West 292 336 7,500 -1,320 Descending Houston Center
10:22AM 29.5153 -94.9914 299° West 286 329 6,400 -1,020 Descending Houston Center
10:23AM 29.5361 -95.0314 301° West 287 330 6,000 -300 Descending Houston Center
10:24AM 29.5750 -95.1119 299° West 287 330 6,000  Level Houston Center
10:25AM 29.6036 -95.2000 291° West 280 322 6,000  Level Houston Center
10:26AM 29.6164 -95.3106 278° West 225 259 6,000 -240 Level Houston Center
10:27AM 29.6222 -95.3464 281° West 226 260 5,500 -900 Descending Houston Center
10:28AM 29.6444 -95.4092 292° West 219 252 4,500 -1,260 Descending Houston Center
10:29AM 29.6961 -95.4731 313° West 225 259 3,000 -1,260 Descending Houston Center
10:30AM 29.7522 -95.4447 24° Northeast 244 281 2,000 -540 Descending Houston Center
10:31AM 29.7331 -95.3825 110° East 229 264 2,000 -360 Level Houston Center
10:32AM 29.6958 -95.3392 135° Southeast 210 242 1,300 -720 Descending Houston Center
10:33AM 29.6675 -95.3044 133° Southeast 178 205 600 -720 Descending Houston Center